Time;durP1;ratioP1;P1;durP2;ratioP2;P2;SDS_P1;SDS_P2;PMS_P1;PMS_P2;Temp;Humidity;BMP_temperature;BMP_pressure;BME280_temperature;BME280_humidity;BME280_pressure;Samples;Min_cycle;Max_cycle;Signal;HPM_P1;HPM_P2
2023/06/17 00:02:40;;;;;;;4.90;4.50;;;20.40;60.40;;;;;;10443377;28;20242;-79
2023/06/17 00:07:42;;;;;;;5.10;4.70;;;20.30;60.60;;;;;;10422663;28;20664;-79
2023/06/17 00:12:44;;;;;;;5.40;4.90;;;20.30;60.50;;;;;;10446540;28;20293;-79
2023/06/17 00:17:49;;;;;;;5.93;4.60;;;20.20;60.50;;;;;;10423924;28;20255;-79
2023/06/17 00:22:52;;;;;;;8.33;5.20;;;20.20;61.50;;;;;;10443216;28;20275;-79
2023/06/17 00:27:54;;;;;;;4.77;4.40;;;20.20;61.10;;;;;;10444549;28;20202;-79
2023/06/17 00:32:58;;;;;;;4.87;4.23;;;20.20;60.80;;;;;;10410322;28;20700;-78
2023/06/17 00:38:00;;;;;;;4.30;4.00;;;20.10;60.70;;;;;;10427995;28;20256;-79
2023/06/17 00:43:02;;;;;;;5.07;4.50;;;20.10;61.90;;;;;;10422425;28;20244;-78
2023/06/17 00:48:07;;;;;;;5.00;4.53;;;20.10;62.00;;;;;;10418688;28;20206;-79
2023/06/17 00:53:09;;;;;;;4.73;4.43;;;20.00;61.60;;;;;;10423377;28;20214;-78
2023/06/17 00:58:12;;;;;;;5.40;4.93;;;20.00;61.70;;;;;;10434785;28;20226;-78
2023/06/17 01:03:17;;;;;;;5.10;4.60;;;19.90;60.90;;;;;;10405373;28;20227;-78
2023/06/17 01:08:28;;;;;;;4.60;4.30;;;19.80;61.40;;;;;;10402955;28;20270;-79
2023/06/17 01:13:32;;;;;;;5.40;5.00;;;19.80;61.40;;;;;;10442270;28;20216;-78
2023/06/17 01:18:37;;;;;;;5.63;5.23;;;19.70;62.50;;;;;;10425723;28;20234;-79
2023/06/17 01:23:41;;;;;;;5.60;5.20;;;19.70;61.50;;;;;;10450815;28;20238;-78
2023/06/17 01:28:45;;;;;;;5.83;5.33;;;19.70;62.80;;;;;;10453278;28;20201;-78
2023/06/17 01:33:50;;;;;;;5.97;5.57;;;19.70;63.50;;;;;;10433482;28;20228;-78
2023/06/17 01:38:56;;;;;;;8.20;6.03;;;19.70;62.70;;;;;;10437619;28;20313;-78
2023/06/17 01:44:02;;;;;;;7.40;5.80;;;19.60;62.20;;;;;;10398770;28;20232;-78
2023/06/17 01:49:04;;;;;;;5.93;5.43;;;19.60;63.70;;;;;;10429623;28;20202;-78
2023/06/17 01:54:06;;;;;;;6.00;5.50;;;19.60;63.80;;;;;;10430542;28;20215;-78
2023/06/17 01:59:10;;;;;;;6.03;5.63;;;19.60;62.90;;;;;;10412501;28;20723;-79
2023/06/17 02:04:12;;;;;;;7.23;6.00;;;19.50;62.40;;;;;;10423871;28;20233;-78
2023/06/17 02:09:15;;;;;;;6.60;6.00;;;19.40;62.80;;;;;;10421469;28;20399;-78
2023/06/17 02:14:18;;;;;;;5.90;5.50;;;19.40;63.40;;;;;;10422073;28;20223;-78
2023/06/17 02:19:21;;;;;;;6.37;5.77;;;19.40;63.10;;;;;;10398741;28;20219;-78
2023/06/17 02:24:23;;;;;;;6.70;6.13;;;19.40;63.70;;;;;;10421716;28;20218;-78
2023/06/17 02:29:27;;;;;;;6.13;5.47;;;19.30;62.70;;;;;;10436493;28;20197;-78
2023/06/17 02:34:29;;;;;;;6.90;6.40;;;19.20;63.10;;;;;;10418448;28;20541;-77
2023/06/17 02:39:31;;;;;;;7.00;6.40;;;19.20;63.80;;;;;;10432190;28;20201;-77
2023/06/17 02:44:35;;;;;;;7.03;6.43;;;19.20;64.10;;;;;;10417111;28;20225;-77
2023/06/17 02:49:37;;;;;;;6.90;6.30;;;19.10;62.80;;;;;;10434064;28;20198;-77
2023/06/17 02:54:40;;;;;;;6.80;6.30;;;19.00;63.80;;;;;;10418059;28;20222;-78
2023/06/17 02:59:50;;;;;;;8.77;6.43;;;19.00;64.00;;;;;;10412547;28;20211;-77
2023/06/17 03:04:53;;;;;;;9.97;6.87;;;18.90;64.60;;;;;;10441585;28;20234;-78
2023/06/17 03:09:56;;;;;;;7.30;6.57;;;18.90;63.90;;;;;;10421410;28;20280;-78
2023/06/17 03:15:00;;;;;;;6.47;5.97;;;18.90;64.10;;;;;;10426127;28;20235;-78
2023/06/17 03:20:05;;;;;;;6.93;6.33;;;18.80;64.60;;;;;;10407048;28;20240;-77
2023/06/17 03:25:09;;;;;;;7.67;6.80;;;18.80;64.70;;;;;;10419964;28;20725;-78
2023/06/17 03:30:14;;;;;;;8.23;6.93;;;18.80;64.50;;;;;;10421738;28;20677;-78
2023/06/17 03:35:16;;;;;;;7.00;6.40;;;18.80;64.30;;;;;;10405565;28;20703;-78
2023/06/17 03:40:19;;;;;;;7.00;6.43;;;18.70;63.80;;;;;;10425185;28;20653;-79
2023/06/17 03:45:24;;;;;;;6.80;6.30;;;18.70;64.50;;;;;;10424731;28;20279;-78
2023/06/17 03:50:29;;;;;;;9.43;6.50;;;18.60;64.20;;;;;;10417298;28;20262;-78
2023/06/17 03:55:32;;;;;;;6.90;6.20;;;18.60;64.70;;;;;;10441218;28;20635;-78
2023/06/17 04:00:37;;;;;;;6.80;6.20;;;18.60;65.40;;;;;;10419132;28;20199;-78
2023/06/17 04:05:41;;;;;;;6.40;5.90;;;18.70;66.00;;;;;;10444439;28;20225;-78
2023/06/17 04:10:44;;;;;;;6.87;6.27;;;18.70;65.40;;;;;;10422944;28;20272;-78
2023/06/17 04:15:47;;;;;;;6.90;6.37;;;18.70;65.30;;;;;;10423758;28;20218;-78
2023/06/17 04:20:56;;;;;;;7.23;6.73;;;18.70;65.80;;;;;;10420670;28;20222;-78
2023/06/17 04:26:00;;;;;;;7.50;6.53;;;18.70;65.60;;;;;;10452727;23;20230;-82
2023/06/17 04:31:05;;;;;;;7.57;6.80;;;18.80;66.40;;;;;;10463217;28;20645;-82
2023/06/17 04:36:14;;;;;;;7.63;6.83;;;18.80;66.70;;;;;;10461693;28;20228;-82
2023/06/17 04:41:17;;;;;;;6.90;6.40;;;18.90;66.40;;;;;;10486922;28;20573;-82
2023/06/17 04:46:23;;;;;;;6.77;6.27;;;18.90;66.10;;;;;;10483983;28;20648;-81
2023/06/17 04:51:25;;;;;;;6.80;6.30;;;19.00;65.70;;;;;;10476753;28;20718;-81
2023/06/17 04:56:28;;;;;;;8.20;7.60;;;18.90;66.30;;;;;;10479055;28;20210;-81
2023/06/17 05:01:32;;;;;;;6.93;6.33;;;19.00;66.70;;;;;;10489429;28;20680;-81
2023/06/17 05:06:35;;;;;;;7.57;7.00;;;19.00;67.60;;;;;;10488738;28;20291;-81
2023/06/17 05:11:38;;;;;;;6.77;6.20;;;19.00;67.10;;;;;;10476914;28;20200;-80
2023/06/17 05:16:42;;;;;;;7.63;6.93;;;19.10;68.10;;;;;;10478810;28;20210;-80
2023/06/17 05:21:44;;;;;;;7.30;6.70;;;19.20;68.50;;;;;;10482268;28;20209;-81
2023/06/17 05:26:49;;;;;;;7.90;6.80;;;19.30;67.70;;;;;;10479168;28;20238;-81
2023/06/17 05:31:53;;;;;;;7.87;7.00;;;19.30;67.70;;;;;;10479317;28;20213;-81
2023/06/17 05:36:56;;;;;;;8.20;7.53;;;19.40;68.30;;;;;;10487152;28;20194;-81
2023/06/17 05:41:58;;;;;;;8.53;7.67;;;19.50;65.40;;;;;;10482029;28;20221;-79
2023/06/17 05:47:01;;;;;;;7.73;7.00;;;19.60;67.30;;;;;;10476129;28;20201;-81
2023/06/17 05:52:05;;;;;;;7.50;6.90;;;19.70;67.50;;;;;;10478251;28;20206;-81
2023/06/17 05:57:08;;;;;;;7.17;6.60;;;19.80;66.70;;;;;;10471588;28;20193;-81
2023/06/17 06:02:11;;;;;;;7.20;6.63;;;19.80;66.50;;;;;;10487142;28;20234;-81
2023/06/17 06:07:13;;;;;;;7.67;6.93;;;19.90;66.60;;;;;;10481926;28;20198;-81
2023/06/17 06:12:16;;;;;;;7.50;6.80;;;20.00;67.00;;;;;;10487958;28;20209;-81
2023/06/17 06:17:19;;;;;;;7.80;7.13;;;20.20;66.40;;;;;;10490852;28;20201;-81
2023/06/17 06:22:22;;;;;;;8.07;7.23;;;20.30;66.20;;;;;;10483542;28;20349;-82
2023/06/17 06:27:24;;;;;;;8.53;7.73;;;20.60;64.20;;;;;;10490381;28;20249;-81
2023/06/17 06:32:28;;;;;;;9.30;8.00;;;20.70;64.60;;;;;;10484602;28;20660;-81
2023/06/17 06:37:32;;;;;;;7.97;7.27;;;20.80;65.00;;;;;;10481438;28;20198;-82
2023/06/17 06:42:35;;;;;;;8.23;7.57;;;20.90;64.40;;;;;;10463095;28;20708;-81
2023/06/17 06:48:00;;;;;;;9.03;8.33;;;21.10;63.30;;;;;;10483081;28;20204;-81
2023/06/17 06:53:03;;;;;;;7.43;6.73;;;21.30;62.90;;;;;;10486418;28;20631;-81
2023/06/17 06:58:05;;;;;;;8.47;7.77;;;21.60;63.80;;;;;;10486848;28;20219;-82
2023/06/17 07:03:10;;;;;;;8.10;7.40;;;21.90;63.50;;;;;;10485652;28;20225;-82
2023/06/17 07:08:12;;;;;;;8.60;6.20;;;22.20;61.80;;;;;;10486929;28;20204;-82
2023/06/17 07:13:17;;;;;;;7.20;6.60;;;22.40;62.20;;;;;;10484114;28;20209;-82
2023/06/17 07:18:22;;;;;;;8.27;7.47;;;22.70;62.20;;;;;;10491671;28;20234;-81
2023/06/17 07:23:25;;;;;;;7.80;7.10;;;23.20;61.50;;;;;;10484085;28;20592;-82
2023/06/17 07:28:28;;;;;;;7.67;6.97;;;23.80;61.70;;;;;;10487545;28;20664;-82
2023/06/17 07:33:32;;;;;;;7.97;6.17;;;24.50;59.90;;;;;;10473041;28;20236;-81
2023/06/17 07:38:35;;;;;;;7.57;6.47;;;25.10;58.30;;;;;;10491696;28;20192;-82
2023/06/17 07:43:37;;;;;;;6.90;6.20;;;25.80;57.60;;;;;;10490872;28;20595;-81
2023/06/17 07:48:41;;;;;;;7.40;6.70;;;26.40;56.20;;;;;;10485344;28;20276;-82
2023/06/17 07:53:43;;;;;;;10.27;6.33;;;27.00;55.00;;;;;;10509404;28;20750;-83
2023/06/17 07:58:45;;;;;;;9.47;6.63;;;27.60;54.80;;;;;;10493452;28;20694;-82
2023/06/17 08:03:48;;;;;;;7.60;6.90;;;28.10;54.00;;;;;;10504044;28;20221;-81
2023/06/17 08:08:51;;;;;;;7.00;6.40;;;28.60;53.10;;;;;;10487115;28;20197;-82
2023/06/17 08:13:53;;;;;;;7.83;5.73;;;29.10;52.40;;;;;;10496364;28;20205;-83
2023/06/17 08:18:57;;;;;;;7.10;6.47;;;29.50;51.90;;;;;;10488562;28;20189;-82
2023/06/17 08:23:59;;;;;;;6.20;5.23;;;30.00;50.20;;;;;;10485168;28;20229;-82
2023/06/17 08:29:01;;;;;;;7.00;6.40;;;30.30;49.60;;;;;;10471204;28;20657;-82
2023/06/17 08:34:05;;;;;;;7.30;6.70;;;30.60;48.10;;;;;;10499094;28;20297;-82
2023/06/17 08:39:07;;;;;;;6.53;5.90;;;30.90;47.50;;;;;;10492895;28;20272;-83
2023/06/17 08:44:11;;;;;;;6.73;6.13;;;31.00;44.40;;;;;;10489078;28;20601;-82
2023/06/17 08:49:16;;;;;;;5.93;5.43;;;31.10;46.60;;;;;;10487382;28;20198;-81
2023/06/17 08:54:19;;;;;;;5.73;5.30;;;31.30;46.70;;;;;;10481101;28;20224;-81
2023/06/17 08:59:21;;;;;;;6.93;6.33;;;31.50;45.40;;;;;;10489448;28;20214;-81
2023/06/17 09:04:26;;;;;;;6.17;5.67;;;31.70;45.70;;;;;;10502730;28;20246;-82
2023/06/17 09:09:28;;;;;;;6.30;5.90;;;32.00;45.10;;;;;;10504080;28;20200;-82
2023/06/17 09:14:30;;;;;;;6.87;6.07;;;32.30;43.80;;;;;;10484565;28;20608;-83
2023/06/17 09:19:34;;;;;;;6.37;5.63;;;32.50;43.40;;;;;;10487495;28;20210;-82
2023/06/17 09:24:42;;;;;;;6.17;5.53;;;32.30;43.60;;;;;;10498757;28;20232;-83
2023/06/17 09:29:45;;;;;;;5.70;5.30;;;32.60;42.10;;;;;;10485446;28;20633;-83
2023/06/17 09:34:49;;;;;;;5.63;5.23;;;33.10;41.50;;;;;;10482248;28;20215;-83
2023/06/17 09:39:52;;;;;;;5.80;5.37;;;33.90;42.30;;;;;;10474462;28;20193;-82
2023/06/17 09:44:54;;;;;;;6.20;5.70;;;34.40;40.10;;;;;;10475034;28;20594;-83
2023/06/17 09:50:01;;;;;;;4.60;4.20;;;33.50;40.00;;;;;;10490052;28;20272;-83
2023/06/17 09:55:05;;;;;;;4.93;4.43;;;32.40;40.80;;;;;;10482162;28;20548;-83
2023/06/17 10:00:10;;;;;;;4.50;4.10;;;31.50;42.70;;;;;;10493467;28;20247;-81
2023/06/17 10:05:15;;;;;;;5.40;4.90;;;30.80;40.70;;;;;;10468945;28;20232;-82
2023/06/17 10:10:19;;;;;;;6.50;4.60;;;31.40;42.10;;;;;;10460120;28;20193;-81
2023/06/17 10:15:23;;;;;;;4.97;3.80;;;33.80;40.70;;;;;;10470387;28;20224;-82
2023/06/17 10:20:31;;;;;;;4.90;4.15;;;35.50;38.20;;;;;;10473006;28;20271;-83
2023/06/17 10:25:35;;;;;;;4.00;3.70;;;37.20;36.60;;;;;;10471277;28;20224;-82
2023/06/17 10:30:39;;;;;;;4.47;4.17;;;36.80;35.40;;;;;;10473404;28;20200;-82
2023/06/17 10:35:44;;;;;;;5.20;4.70;;;35.50;35.70;;;;;;10488956;28;20220;-83
2023/06/17 10:46:25;;;;;;;4.70;4.30;;;32.90;38.00;;;;;;10257282;29;20401;-80
2023/06/17 10:51:30;;;;;;;4.10;3.80;;;31.90;39.10;;;;;;10253694;28;20296;-81
2023/06/17 10:56:32;;;;;;;4.73;4.43;;;31.00;40.00;;;;;;10235054;29;20260;-81
2023/06/17 11:01:35;;;;;;;5.03;4.63;;;30.30;40.10;;;;;;10230934;29;20222;-81
2023/06/17 11:06:39;;;;;;;4.60;4.30;;;29.70;40.30;;;;;;10238844;29;20225;-79
2023/06/17 11:11:41;;;;;;;5.53;5.00;;;29.20;41.30;;;;;;10240146;28;20232;-79
2023/06/17 11:16:43;;;;;;;4.97;4.57;;;28.80;40.70;;;;;;10236266;29;20198;-79
2023/06/17 11:21:50;;;;;;;4.73;4.43;;;28.50;40.90;;;;;;10234391;28;20213;-78
2023/06/17 11:26:52;;;;;;;6.47;4.80;;;28.20;41.80;;;;;;10259871;28;20316;-79
2023/06/17 11:31:55;;;;;;;4.87;4.27;;;28.00;41.90;;;;;;10239986;28;20214;-79
2023/06/17 11:37:00;;;;;;;5.30;4.80;;;27.90;41.80;;;;;;10242140;28;20201;-81
2023/06/17 11:42:03;;;;;;;4.47;4.13;;;27.80;42.50;;;;;;10251978;28;20260;-81
2023/06/17 11:47:06;;;;;;;4.53;4.27;;;27.60;42.30;;;;;;10283070;28;20236;-79
2023/06/17 11:52:09;;;;;;;4.73;4.33;;;27.60;42.80;;;;;;10272962;28;20231;-80
2023/06/17 11:57:12;;;;;;;6.63;6.03;;;27.60;42.80;;;;;;10293965;28;20216;-79
2023/06/17 12:02:14;;;;;;;5.53;5.13;;;27.50;43.40;;;;;;10277223;28;20783;-80
2023/06/17 12:07:17;;;;;;;5.10;4.70;;;27.50;43.60;;;;;;10275441;28;20252;-78
2023/06/17 12:12:26;;;;;;;4.83;4.43;;;27.50;43.30;;;;;;10276384;28;20612;-80
2023/06/17 12:17:28;;;;;;;5.93;4.67;;;27.50;42.90;;;;;;10278576;28;20197;-80
2023/06/17 12:22:32;;;;;;;4.80;4.37;;;27.50;41.30;;;;;;10284131;28;20675;-80
2023/06/17 12:27:36;;;;;;;6.10;5.13;;;27.50;41.90;;;;;;10274877;28;20229;-77
2023/06/17 12:32:39;;;;;;;4.77;4.37;;;27.50;41.30;;;;;;10275799;28;20227;-80
2023/06/17 12:37:43;;;;;;;5.27;4.77;;;27.40;42.80;;;;;;10273201;28;20200;-78
2023/06/17 12:42:45;;;;;;;5.00;4.60;;;27.50;42.20;;;;;;10274391;28;20348;-79
2023/06/17 12:47:51;;;;;;;5.33;4.53;;;27.50;42.70;;;;;;10268037;28;20296;-78
2023/06/17 12:52:55;;;;;;;6.20;5.70;;;27.50;42.70;;;;;;10283243;28;20217;-77
2023/06/17 12:57:58;;;;;;;5.03;4.67;;;27.50;42.70;;;;;;10275269;28;20197;-77
2023/06/17 13:03:00;;;;;;;5.50;5.10;;;27.50;42.50;;;;;;10272774;28;20730;-78
2023/06/17 13:08:06;;;;;;;6.70;4.50;;;27.40;40.70;;;;;;10284046;28;20201;-79
2023/06/17 13:13:08;;;;;;;4.63;4.33;;;27.30;40.80;;;;;;10269367;28;20275;-78
2023/06/17 13:18:10;;;;;;;4.90;4.30;;;27.30;41.20;;;;;;10271908;28;20212;-78
2023/06/17 13:23:14;;;;;;;4.57;4.27;;;27.20;41.70;;;;;;10275741;28;20957;-79
2023/06/17 13:28:16;;;;;;;4.93;4.60;;;27.20;40.80;;;;;;10285253;28;20201;-79
2023/06/17 13:33:18;;;;;;;5.20;4.70;;;27.20;41.80;;;;;;10277719;28;20592;-79
2023/06/17 13:38:21;;;;;;;4.60;4.30;;;27.20;41.70;;;;;;10275354;28;20205;-79
2023/06/17 13:43:23;;;;;;;4.70;4.30;;;27.10;41.20;;;;;;10279464;28;20309;-78
2023/06/17 13:48:26;;;;;;;5.23;4.63;;;27.00;42.20;;;;;;10274140;28;20206;-78
2023/06/17 13:53:30;;;;;;;7.33;5.10;;;26.90;41.90;;;;;;10277444;28;20273;-79
2023/06/17 13:58:33;;;;;;;4.60;4.20;;;26.90;41.60;;;;;;10276072;28;20264;-80
2023/06/17 14:03:35;;;;;;;4.63;4.23;;;26.90;42.30;;;;;;10253415;28;20272;-78
2023/06/17 14:08:38;;;;;;;5.37;4.97;;;26.90;42.80;;;;;;10276768;28;20261;-78
2023/06/17 14:13:40;;;;;;;7.23;5.00;;;26.90;41.20;;;;;;10275428;28;20221;-80
2023/06/17 14:18:42;;;;;;;5.30;4.67;;;26.90;42.00;;;;;;10270145;28;20523;-79
2023/06/17 14:24:09;;;;;;;6.73;5.17;;;26.80;42.70;;;;;;10273367;28;20228;-80
2023/06/17 14:29:11;;;;;;;5.67;5.00;;;26.80;41.00;;;;;;10273053;28;20200;-80
2023/06/17 14:34:13;;;;;;;4.80;4.40;;;26.90;41.00;;;;;;10254937;28;20212;-79
2023/06/17 14:39:17;;;;;;;5.07;4.70;;;26.90;41.60;;;;;;10269709;28;20225;-79
2023/06/17 14:44:19;;;;;;;5.60;5.20;;;26.90;41.80;;;;;;10283653;28;20295;-79
2023/06/17 14:49:21;;;;;;;5.90;5.40;;;26.90;41.90;;;;;;10246445;28;20615;-80
2023/06/17 14:54:24;;;;;;;5.93;5.53;;;26.90;40.90;;;;;;10283760;28;20619;-80
2023/06/17 14:59:26;;;;;;;5.27;4.80;;;26.90;41.10;;;;;;10280443;28;20194;-79
2023/06/17 15:04:29;;;;;;;4.90;4.50;;;26.90;41.50;;;;;;10282993;28;20228;-80
2023/06/17 15:09:34;;;;;;;5.90;5.50;;;26.90;42.40;;;;;;10252990;28;20208;-80
2023/06/17 15:14:36;;;;;;;6.63;5.13;;;26.90;41.30;;;;;;10281123;28;20212;-80
2023/06/17 15:19:39;;;;;;;5.90;5.50;;;26.80;40.90;;;;;;10277029;28;20656;-79
2023/06/17 15:24:42;;;;;;;5.17;4.87;;;26.80;41.20;;;;;;10278850;28;20228;-79
2023/06/17 15:29:44;;;;;;;5.80;5.37;;;26.70;42.90;;;;;;10261267;28;20216;-80
2023/06/17 15:34:46;;;;;;;6.03;5.43;;;26.70;43.40;;;;;;10286848;28;20376;-80
2023/06/17 15:39:50;;;;;;;6.60;6.00;;;26.70;42.20;;;;;;10272385;28;20710;-80
2023/06/17 15:44:53;;;;;;;5.73;5.20;;;26.60;43.40;;;;;;10273405;28;20252;-79
2023/06/17 15:49:55;;;;;;;5.20;4.70;;;26.60;42.60;;;;;;10275416;28;20202;-80
2023/06/17 15:55:00;;;;;;;6.27;5.67;;;26.60;42.70;;;;;;10297588;28;20209;-79
2023/06/17 16:00:03;;;;;;;5.77;5.37;;;26.60;42.40;;;;;;10280827;28;20288;-80
2023/06/17 16:05:14;;;;;;;6.37;5.87;;;26.60;43.20;;;;;;10284585;28;20264;-80
2023/06/17 16:10:17;;;;;;;6.10;5.60;;;26.70;41.80;;;;;;10283930;28;20205;-80
2023/06/17 16:15:20;;;;;;;5.80;5.20;;;26.60;42.40;;;;;;10276762;28;20235;-80
2023/06/17 16:20:22;;;;;;;5.90;5.40;;;26.70;41.40;;;;;;10278456;28;20255;-79
2023/06/17 16:25:25;;;;;;;5.50;5.00;;;26.70;42.00;;;;;;10273510;28;20221;-80
2023/06/17 16:30:27;;;;;;;7.70;5.60;;;26.70;41.60;;;;;;10280892;28;20193;-79
2023/06/17 16:35:29;;;;;;;5.60;5.13;;;26.80;42.40;;;;;;10266634;28;20445;-80
2023/06/17 16:40:33;;;;;;;6.73;6.13;;;26.70;42.30;;;;;;10268802;28;20248;-79
2023/06/17 16:45:35;;;;;;;6.10;5.60;;;26.70;43.10;;;;;;10281323;28;20714;-79
2023/06/17 16:50:37;;;;;;;5.63;5.23;;;26.70;41.30;;;;;;10273265;28;20252;-78
2023/06/17 16:55:41;;;;;;;6.33;5.83;;;26.70;41.90;;;;;;10282393;28;20224;-80
2023/06/17 17:00:43;;;;;;;6.30;5.70;;;26.70;42.00;;;;;;10434231;22;20230;-82
2023/06/17 17:05:46;;;;;;;6.07;5.47;;;26.60;43.10;;;;;;10437978;28;20219;-79
2023/06/17 17:10:49;;;;;;;5.83;5.33;;;26.60;43.00;;;;;;10428577;28;20226;-83
2023/06/17 17:15:51;;;;;;;7.30;6.70;;;26.50;42.60;;;;;;10425476;28;20290;-83
2023/06/17 17:20:53;;;;;;;8.97;7.20;;;26.50;41.10;;;;;;10429613;28;20218;-82
2023/06/17 17:25:57;;;;;;;6.90;6.30;;;26.50;41.60;;;;;;10438936;28;20214;-82
2023/06/17 17:30:59;;;;;;;6.17;5.67;;;26.50;41.20;;;;;;10430579;28;20326;-83
2023/06/17 17:36:01;;;;;;;6.77;6.27;;;26.40;42.50;;;;;;10428853;28;20191;-83
2023/06/17 17:41:05;;;;;;;6.53;6.03;;;26.30;42.90;;;;;;10443461;28;20234;-82
2023/06/17 17:46:09;;;;;;;7.70;6.17;;;26.20;42.60;;;;;;10445996;28;20278;-83
2023/06/17 17:51:11;;;;;;;6.10;5.47;;;26.20;43.30;;;;;;10427648;28;20701;-83
2023/06/17 17:56:14;;;;;;;6.80;6.20;;;26.10;43.50;;;;;;10434683;28;20199;-82
2023/06/17 18:01:16;;;;;;;6.97;6.27;;;26.00;43.50;;;;;;10431088;28;20226;-83
2023/06/17 18:06:18;;;;;;;6.43;5.97;;;26.00;44.10;;;;;;10425400;28;20257;-83
2023/06/17 18:11:22;;;;;;;6.60;6.00;;;26.00;44.40;;;;;;10425350;28;20562;-84
2023/06/17 18:16:25;;;;;;;8.50;7.80;;;25.90;46.10;;;;;;10426064;28;20194;-83
2023/06/17 18:21:28;;;;;;;7.13;6.53;;;25.80;46.40;;;;;;10425296;28;20206;-83
2023/06/17 18:26:32;;;;;;;7.13;6.53;;;25.80;47.70;;;;;;10425459;28;20218;-83
2023/06/17 18:31:34;;;;;;;6.53;6.03;;;25.60;47.70;;;;;;10425181;28;20203;-83
2023/06/17 18:36:36;;;;;;;7.33;6.73;;;25.50;46.60;;;;;;10425020;28;20218;-83
2023/06/17 18:41:41;;;;;;;6.20;5.70;;;25.50;48.00;;;;;;10421637;28;20557;-84
2023/06/17 18:46:45;;;;;;;8.70;7.53;;;25.40;47.40;;;;;;10424554;28;20230;-84
2023/06/17 18:51:47;;;;;;;7.47;6.40;;;25.30;46.60;;;;;;10425455;28;20218;-83
2023/06/17 18:56:50;;;;;;;7.30;6.57;;;25.30;47.40;;;;;;10423239;28;20237;-83
2023/06/17 19:01:52;;;;;;;6.60;6.10;;;25.30;48.20;;;;;;10434358;28;20198;-83
2023/06/17 19:06:55;;;;;;;7.13;6.53;;;25.10;48.60;;;;;;10424240;28;20214;-83
2023/06/17 19:11:59;;;;;;;7.10;6.50;;;25.00;48.60;;;;;;10424027;28;20563;-83
2023/06/17 19:17:01;;;;;;;6.83;6.27;;;24.80;48.90;;;;;;10428053;28;20242;-83
2023/06/17 19:22:04;;;;;;;7.90;7.10;;;24.70;49.10;;;;;;10426191;28;20198;-82
2023/06/17 19:27:07;;;;;;;7.03;6.43;;;24.60;48.70;;;;;;10421459;28;20289;-83
2023/06/17 19:32:10;;;;;;;8.00;7.20;;;24.40;49.00;;;;;;10425033;28;20194;-83
2023/06/17 19:37:12;;;;;;;8.33;7.60;;;24.30;48.80;;;;;;10424605;28;20237;-82
2023/06/17 19:42:15;;;;;;;7.00;6.30;;;24.20;48.90;;;;;;10428295;28;20195;-82
2023/06/17 19:47:17;;;;;;;8.20;7.50;;;24.00;48.60;;;;;;10450771;28;20313;-81
2023/06/17 19:52:20;;;;;;;8.50;7.70;;;24.00;48.80;;;;;;10450307;28;20250;-82
2023/06/17 19:57:23;;;;;;;6.80;6.20;;;23.90;49.10;;;;;;10449170;28;20214;-81
2023/06/17 20:02:26;;;;;;;7.73;6.80;;;23.80;49.30;;;;;;10447836;28;20336;-82
2023/06/17 20:07:28;;;;;;;7.10;6.50;;;23.70;49.50;;;;;;10427469;28;20513;-79
2023/06/17 20:12:31;;;;;;;6.27;5.77;;;23.60;49.40;;;;;;10427446;28;20206;-81
2023/06/17 20:17:33;;;;;;;7.33;6.73;;;23.50;49.30;;;;;;10430753;28;20622;-82
2023/06/17 20:22:35;;;;;;;6.53;5.90;;;23.50;50.30;;;;;;10428656;28;20203;-82
2023/06/17 20:27:39;;;;;;;6.47;5.97;;;23.40;50.60;;;;;;10427147;28;20214;-81
2023/06/17 20:32:42;;;;;;;7.40;6.17;;;23.30;50.80;;;;;;10435865;28;20206;-80
2023/06/17 20:37:44;;;;;;;8.10;6.50;;;23.20;50.00;;;;;;10416915;28;20218;-80
2023/06/17 20:42:48;;;;;;;7.07;6.47;;;23.20;50.70;;;;;;10420095;28;20206;-82
2023/06/17 20:47:50;;;;;;;8.47;7.20;;;23.10;50.70;;;;;;10425466;28;20236;-81
2023/06/17 20:52:52;;;;;;;7.83;7.03;;;23.00;51.30;;;;;;10421954;28;20264;-79
2023/06/17 20:57:55;;;;;;;7.63;6.93;;;23.00;51.30;;;;;;10431321;28;20226;-79
2023/06/17 21:02:57;;;;;;;7.00;6.40;;;22.90;50.90;;;;;;10426785;28;20250;-80
2023/06/17 21:08:00;;;;;;;6.70;6.10;;;22.90;51.50;;;;;;10411507;28;20218;-81
2023/06/17 21:13:03;;;;;;;6.73;6.10;;;22.80;51.40;;;;;;10416217;28;20240;-81
2023/06/17 21:18:06;;;;;;;7.00;6.40;;;22.70;51.30;;;;;;10417319;28;20221;-80
2023/06/17 21:23:08;;;;;;;7.00;6.43;;;22.70;52.10;;;;;;10421096;28;20190;-82
2023/06/17 21:28:12;;;;;;;7.30;6.47;;;22.60;52.10;;;;;;10420340;28;20214;-82
2023/06/17 21:33:14;;;;;;;7.93;7.23;;;22.50;52.10;;;;;;10417023;28;20332;-80
2023/06/17 21:38:16;;;;;;;7.27;6.67;;;22.50;51.80;;;;;;10416205;28;20218;-81
2023/06/17 21:43:20;;;;;;;7.67;6.90;;;22.40;51.20;;;;;;10420139;28;20249;-81
2023/06/17 21:48:22;;;;;;;9.10;7.13;;;22.30;51.70;;;;;;10419259;28;20229;-82
2023/06/17 21:53:24;;;;;;;7.63;7.03;;;22.30;52.00;;;;;;10416789;28;20244;-80
2023/06/17 21:58:27;;;;;;;7.97;7.27;;;22.20;52.70;;;;;;10433846;28;20262;-80
2023/06/17 22:03:30;;;;;;;7.43;6.73;;;22.10;52.50;;;;;;10431905;28;20206;-82
2023/06/17 22:08:32;;;;;;;7.47;6.83;;;22.10;51.70;;;;;;10425551;28;20225;-82
2023/06/17 22:13:35;;;;;;;6.60;6.00;;;22.00;52.40;;;;;;10420467;28;20194;-82
2023/06/17 22:18:38;;;;;;;7.30;6.70;;;22.00;52.80;;;;;;10414352;28;20796;-80
2023/06/17 22:23:40;;;;;;;7.50;6.90;;;21.90;52.80;;;;;;10419275;28;20217;-82
2023/06/17 22:28:43;;;;;;;7.60;7.00;;;21.90;52.40;;;;;;10419877;28;20242;-80
2023/06/17 22:33:45;;;;;;;7.20;6.50;;;21.80;53.00;;;;;;10421326;28;20198;-81
2023/06/17 22:38:48;;;;;;;6.53;6.03;;;21.80;52.90;;;;;;10421302;28;20218;-82
2023/06/17 22:43:51;;;;;;;12.67;6.93;;;21.70;53.30;;;;;;10422048;28;20198;-82
2023/06/17 22:48:53;;;;;;;7.97;7.17;;;21.70;53.80;;;;;;10436416;28;20221;-81
2023/06/17 22:53:55;;;;;;;6.77;6.20;;;21.60;53.20;;;;;;10431425;28;20586;-82
2023/06/17 22:58:59;;;;;;;7.50;6.90;;;21.60;53.80;;;;;;10427056;28;20782;-81
2023/06/17 23:04:01;;;;;;;7.53;6.83;;;21.50;53.80;;;;;;10425144;28;20226;-81
2023/06/17 23:09:06;;;;;;;7.00;6.30;;;21.50;53.90;;;;;;10411131;28;20229;-80
2023/06/17 23:14:09;;;;;;;6.87;6.27;;;21.40;54.00;;;;;;10414647;28;20198;-81
2023/06/17 23:19:12;;;;;;;8.00;7.20;;;21.40;54.00;;;;;;10418772;28;20298;-80
2023/06/17 23:24:16;;;;;;;7.87;7.17;;;21.40;54.40;;;;;;10423068;28;20253;-81
2023/06/17 23:29:20;;;;;;;8.10;7.40;;;21.30;54.50;;;;;;10419556;28;20226;-81
2023/06/17 23:34:22;;;;;;;10.20;7.87;;;21.30;54.60;;;;;;10421285;28;20206;-81
2023/06/17 23:39:24;;;;;;;7.73;7.00;;;21.20;54.80;;;;;;10417086;28;20240;-81
2023/06/17 23:44:28;;;;;;;7.83;7.03;;;21.10;54.70;;;;;;10425843;28;20731;-81
2023/06/17 23:49:34;;;;;;;8.30;7.43;;;21.10;55.50;;;;;;10421275;28;20276;-81
2023/06/17 23:54:36;;;;;;;7.90;7.30;;;21.10;55.60;;;;;;10421576;28;20195;-81
2023/06/17 23:59:40;;;;;;;8.27;7.27;;;21.00;55.30;;;;;;10419690;28;20233;-81
